Time;durP1;ratioP1;P1;durP2;ratioP2;P2;SDS_P1;SDS_P2;PMS_P1;PMS_P2;Temp;Humidity;BMP_temperature;BMP_pressure;BME280_temperature;BME280_humidity;BME280_pressure;Samples;Min_cycle;Max_cycle;Signal;HPM_P1;HPM_P2
2022/02/13 00:03:04;;;;;;;0.10;0.10;;;;;;;0.30;100.00;101837.84;10496784;28;20025;-63
2022/02/13 00:08:05;;;;;;;0.00;0.00;;;;;;;0.32;100.00;101840.38;10496796;28;20263;-63
2022/02/13 00:13:05;;;;;;;0.00;0.00;;;;;;;0.28;100.00;101823.94;10496306;28;20028;-64
2022/02/13 00:18:06;;;;;;;0.00;0.00;;;;;;;0.28;100.00;101823.94;10496104;28;20542;-64
2022/02/13 00:23:08;;;;;;;0.08;0.08;;;;;;;0.33;100.00;101834.25;10495288;28;20420;-64
2022/02/13 00:28:11;;;;;;;0.00;0.00;;;;;;;0.27;100.00;101827.50;10495821;28;20023;-64
2022/02/13 00:33:11;;;;;;;0.00;0.00;;;;;;;0.28;100.00;101817.88;10495361;28;20036;-62
2022/02/13 00:38:12;;;;;;;0.10;0.10;;;;;;;0.22;100.00;101788.38;10495379;28;20033;-63
2022/02/13 00:43:13;;;;;;;0.00;0.00;;;;;;;0.19;100.00;101785.91;10495063;28;20021;-64
2022/02/13 00:48:13;;;;;;;0.00;0.00;;;;;;;0.21;100.00;101798.94;10494683;28;20027;-64
2022/02/13 00:53:14;;;;;;;0.00;0.00;;;;;;;0.20;100.00;101797.22;10494548;28;20113;-64
2022/02/13 00:58:14;;;;;;;0.00;0.00;;;;;;;0.23;100.00;101786.63;10500203;28;20103;-65
2022/02/13 01:03:14;;;;;;;0.00;0.00;;;;;;;0.25;100.00;101774.31;10493798;28;20024;-64
2022/02/13 01:08:15;;;;;;;0.00;0.00;;;;;;;0.27;100.00;101763.75;10493768;28;20389;-64
2022/02/13 01:13:16;;;;;;;0.00;0.00;;;;;;;0.23;100.00;101739.44;10494145;28;20047;-64
2022/02/13 01:18:17;;;;;;;0.08;0.08;;;;;;;0.24;100.00;101753.44;10493562;28;20270;-64
2022/02/13 01:23:17;;;;;;;0.00;0.00;;;;;;;0.20;100.00;101735.22;10493215;28;20039;-64
2022/02/13 01:28:19;;;;;;;0.00;0.00;;;;;;;0.21;100.00;101747.41;10492987;28;20029;-64
2022/02/13 01:33:19;;;;;;;0.00;0.00;;;;;;;0.23;100.00;101739.44;10492810;28;20506;-64
2022/02/13 01:38:20;;;;;;;0.10;0.10;;;;;;;0.14;100.00;101737.25;10492947;28;20016;-64
2022/02/13 01:43:21;;;;;;;0.00;0.00;;;;;;;0.10;100.00;101710.34;10485246;28;20016;-64
2022/02/13 01:48:21;;;;;;;0.00;0.00;;;;;;;0.07;100.00;101707.88;10492516;28;20025;-64
2022/02/13 01:53:21;;;;;;;0.10;0.10;;;;;;;0.02;100.00;101711.63;10491943;28;20024;-64
2022/02/13 01:58:22;;;;;;;0.10;0.10;;;;;;;-0.02;100.00;101703.91;10492317;28;20028;-64
2022/02/13 02:03:22;;;;;;;0.00;0.00;;;;;;;-0.03;100.00;101686.50;10491660;28;20028;-64
2022/02/13 02:08:23;;;;;;;0.00;0.00;;;;;;;-0.05;100.00;101695.34;10491267;28;20028;-64
2022/02/13 02:13:23;;;;;;;0.10;0.10;;;;;;;-0.13;100.00;101690.44;10491180;28;20050;-63
2022/02/13 02:18:23;;;;;;;0.03;0.03;;;;;;;-0.13;100.00;101681.75;10490556;28;20025;-64
2022/02/13 02:23:25;;;;;;;0.00;0.00;;;;;;;-0.14;100.00;101662.56;10491413;28;20273;-63
2022/02/13 02:28:25;;;;;;;0.00;0.00;;;;;;;-0.17;100.00;101651.38;10491104;28;20031;-62
2022/02/13 02:33:27;;;;;;;0.00;0.00;;;;;;;-0.18;100.00;101649.66;10490400;28;20028;-64
2022/02/13 02:38:27;;;;;;;0.10;0.10;;;;;;;-0.17;100.00;101649.63;10490841;28;20159;-64
2022/02/13 02:43:27;;;;;;;0.05;0.05;;;;;;;-0.16;100.00;101632.13;10490084;28;20614;-64
2022/02/13 02:48:28;;;;;;;0.08;0.08;;;;;;;-0.19;100.00;101616.56;10489865;28;20028;-64
2022/02/13 02:53:29;;;;;;;0.00;0.00;;;;;;;-0.21;100.00;101623.63;10492341;28;20020;-63
2022/02/13 02:58:30;;;;;;;0.00;0.00;;;;;;;-0.16;100.00;101604.16;10493486;28;20059;-63
2022/02/13 03:03:32;;;;;;;0.00;0.00;;;;;;;-0.15;100.00;101590.13;10489347;28;20468;-63
2022/02/13 03:08:32;;;;;;;0.05;0.05;;;;;;;-0.12;100.00;101583.91;10489588;28;20034;-63
2022/02/13 03:13:32;;;;;;;0.10;0.10;;;;;;;-0.12;100.00;101568.19;10489109;28;20043;-63
2022/02/13 03:18:33;;;;;;;0.10;0.10;;;;;;;-0.12;100.00;101565.59;10488991;28;20558;-63
2022/02/13 03:23:33;;;;;;;0.00;0.00;;;;;;;-0.13;100.00;101572.59;10489369;28;20043;-63
2022/02/13 03:28:33;;;;;;;0.05;0.05;;;;;;;-0.16;100.00;101569.28;10488979;28;20077;-62
2022/02/13 03:33:33;;;;;;;0.03;0.03;;;;;;;-0.20;100.00;101568.59;10488672;28;20025;-63
2022/02/13 03:38:34;;;;;;;0.07;0.07;;;;;;;-0.25;100.00;101567.94;10489100;28;20089;-63
2022/02/13 03:43:34;;;;;;;0.00;0.00;;;;;;;-0.25;100.00;101541.75;10488517;28;20716;-63
2022/02/13 03:48:35;;;;;;;0.10;0.10;;;;;;;-0.18;100.00;101540.53;10488681;28;20082;-63
2022/02/13 03:53:35;;;;;;;0.00;0.00;;;;;;;-0.20;100.00;101542.41;10489162;28;20032;-62
2022/02/13 03:58:35;;;;;;;0.00;0.00;;;;;;;-0.25;100.00;101539.13;10475783;28;20024;-63
2022/02/13 04:03:35;;;;;;;0.00;0.00;;;;;;;-0.27;100.00;101543.59;10488163;28;20333;-62
2022/02/13 04:08:36;;;;;;;0.00;0.00;;;;;;;-0.31;100.00;101542.03;10488232;28;20299;-63
2022/02/13 04:13:36;;;;;;;0.10;0.10;;;;;;;-0.36;100.00;101544.88;10488055;28;20021;-63
2022/02/13 04:18:36;;;;;;;0.10;0.10;;;;;;;-0.37;100.00;101550.19;10487839;28;20259;-63
2022/02/13 04:23:37;;;;;;;0.10;0.10;;;;;;;-0.37;100.00;101542.34;10487550;28;20272;-63
2022/02/13 04:28:37;;;;;;;0.10;0.10;;;;;;;-0.43;100.00;101540.00;10487619;28;20035;-63
2022/02/13 04:33:37;;;;;;;0.10;0.10;;;;;;;-0.45;100.00;101532.22;10486661;28;20055;-63
2022/02/13 04:38:38;;;;;;;0.00;0.00;;;;;;;-0.46;100.00;101514.81;10487608;28;20286;-63
2022/02/13 04:43:38;;;;;;;0.10;0.10;;;;;;;-0.40;100.00;101492.75;10493207;28;20365;-63
2022/02/13 04:48:38;;;;;;;0.05;0.05;;;;;;;-0.40;100.00;101508.44;10494873;28;20016;-63
2022/02/13 04:53:39;;;;;;;0.00;0.00;;;;;;;-0.40;100.00;101500.59;10497750;28;20048;-63
2022/02/13 04:58:39;;;;;;;0.00;0.00;;;;;;;-0.42;100.00;101502.44;10494715;28;20271;-64
2022/02/13 05:03:39;;;;;;;0.00;0.00;;;;;;;-0.40;100.00;101500.59;10494211;28;20263;-63
2022/02/13 05:08:40;;;;;;;0.00;0.00;;;;;;;-0.39;100.00;101490.03;10494158;28;20293;-63
2022/02/13 05:13:40;;;;;;;0.00;0.00;;;;;;;-0.36;100.00;101489.91;10493701;28;20020;-62
2022/02/13 05:18:40;;;;;;;0.10;0.10;;;;;;;-0.33;100.00;101489.75;10479862;28;20270;-63
2022/02/13 05:23:40;;;;;;;0.10;0.10;;;;;;;-0.33;100.00;101509.84;10571829;22;20768;-66
2022/02/13 05:28:41;;;;;;;0.00;0.00;;;;;;;-0.35;100.00;101502.09;10436054;28;20020;-66
2022/02/13 05:33:41;;;;;;;0.10;0.10;;;;;;;-0.39;100.00;101495.28;10435729;28;20029;-65
2022/02/13 05:38:42;;;;;;;0.10;0.10;;;;;;;-0.37;100.00;101482.13;10440803;28;20052;-65
2022/02/13 05:43:42;;;;;;;0.10;0.10;;;;;;;-0.34;100.00;101479.38;10432704;28;20267;-65
2022/02/13 05:48:45;;;;;;;0.00;0.00;;;;;;;-0.31;100.00;101473.97;10441906;28;20048;-65
2022/02/13 05:53:46;;;;;;;0.00;0.00;;;;;;;-0.31;100.00;101463.50;10435894;28;20487;-65
2022/02/13 05:58:47;;;;;;;0.00;0.00;;;;;;;-0.31;100.00;101468.75;10435090;28;20082;-65
2022/02/13 06:03:48;;;;;;;0.00;0.00;;;;;;;-0.32;100.00;101467.91;10421521;28;20079;-66
2022/02/13 06:08:48;;;;;;;0.00;0.00;;;;;;;-0.34;100.00;101468.91;10436255;28;20029;-65
2022/02/13 06:13:48;;;;;;;0.10;0.10;;;;;;;-0.37;100.00;101477.75;10439181;28;20025;-65
2022/02/13 06:18:49;;;;;;;0.00;0.00;;;;;;;-0.39;100.00;101468.25;10436333;28;20772;-65
2022/02/13 06:23:49;;;;;;;0.00;0.00;;;;;;;-0.38;100.00;101478.63;10427420;28;20025;-65
2022/02/13 06:28:50;;;;;;;0.10;0.10;;;;;;;-0.41;100.00;101475.31;10429795;28;20267;-65
2022/02/13 06:33:51;;;;;;;0.03;0.03;;;;;;;-0.43;100.00;101478.03;10432947;28;20068;-66
2022/02/13 06:38:51;;;;;;;0.10;0.10;;;;;;;-0.46;100.00;101468.56;10438193;28;20482;-67
2022/02/13 06:43:51;;;;;;;0.00;0.00;;;;;;;-0.55;100.00;101458.53;10432588;28;20021;-65
2022/02/13 06:48:52;;;;;;;0.00;0.00;;;;;;;-0.60;100.00;101436.94;10426914;28;20021;-66
2022/02/13 06:53:52;;;;;;;0.00;0.00;;;;;;;-0.59;100.00;101445.66;10430092;28;20029;-66
2022/02/13 06:58:52;;;;;;;0.00;0.00;;;;;;;-0.59;100.00;101441.25;10429796;28;20075;-66
2022/02/13 07:03:53;;;;;;;0.10;0.10;;;;;;;-0.52;100.00;101449.69;10426360;28;20024;-67
2022/02/13 07:08:53;;;;;;;0.00;0.00;;;;;;;-0.46;100.00;101433.69;10426302;28;20016;-66
2022/02/13 07:13:53;;;;;;;0.00;0.00;;;;;;;-0.32;100.00;101435.63;10434836;28;20287;-66
2022/02/13 07:18:54;;;;;;;0.03;0.03;;;;;;;-0.20;100.00;101424.56;10416595;28;20499;-65
2022/02/13 07:23:54;;;;;;;0.10;0.10;;;;;;;-0.09;100.00;101424.03;10429104;28;20017;-67
2022/02/13 07:29:00;;;;;;;0.00;0.00;;;;;;;0.00;100.00;101420.97;10421616;28;20024;-66
2022/02/13 07:34:02;;;;;;;0.00;0.00;;;;;;;0.13;98.15;101410.72;10423945;28;20025;-67
2022/02/13 07:39:03;;;;;;;0.03;0.03;;;;;;;0.26;96.79;101417.00;10436181;28;20013;-67
2022/02/13 07:44:03;;;;;;;0.10;0.10;;;;;;;0.36;96.94;101414.78;10425887;28;20170;-66
2022/02/13 07:49:05;;;;;;;0.00;0.00;;;;;;;0.49;96.36;101414.97;10423781;28;20018;-65
2022/02/13 07:54:05;;;;;;;0.05;0.05;;;;;;;0.64;94.99;101406.31;10427814;28;20025;-65
2022/02/13 07:59:06;;;;;;;0.08;0.08;;;;;;;0.92;94.02;101407.47;10418899;28;20014;-65
2022/02/13 08:04:06;;;;;;;0.00;0.00;;;;;;;1.17;92.94;101401.75;10424621;28;20399;-67
2022/02/13 08:09:07;;;;;;;0.00;0.00;;;;;;;1.42;90.90;101396.78;10435863;28;20035;-67
2022/02/13 08:14:07;;;;;;;0.00;0.00;;;;;;;2.23;88.59;101392.09;10424792;28;20477;-67
2022/02/13 08:19:07;;;;;;;0.00;0.00;;;;;;;3.42;84.61;101382.13;10438251;28;20272;-66
2022/02/13 08:24:08;;;;;;;0.00;0.00;;;;;;;4.15;77.83;101376.41;10431394;28;20104;-67
2022/02/13 08:29:08;;;;;;;0.00;0.00;;;;;;;4.53;74.89;101363.22;10439831;28;20115;-67
2022/02/13 08:34:08;;;;;;;0.00;0.00;;;;;;;5.03;72.37;101360.56;10443071;28;20100;-67
2022/02/13 08:39:09;;;;;;;0.00;0.00;;;;;;;5.07;72.70;101354.97;10439674;28;20025;-66
2022/02/13 08:44:09;;;;;;;0.00;0.00;;;;;;;4.85;72.89;101338.97;10437677;28;20021;-67
2022/02/13 08:49:09;;;;;;;0.00;0.00;;;;;;;4.53;72.84;101327.09;10425921;28;20025;-66
2022/02/13 08:54:10;;;;;;;0.00;0.00;;;;;;;4.37;73.30;101329.16;10431308;28;20033;-66
2022/02/13 08:59:10;;;;;;;0.00;0.00;;;;;;;4.31;74.09;101309.31;10439609;28;20087;-66
2022/02/13 09:04:11;;;;;;;0.10;0.10;;;;;;;4.18;75.06;101308.47;10427849;28;20468;-66
2022/02/13 09:09:12;;;;;;;0.00;0.00;;;;;;;4.30;74.41;101315.56;10435508;28;20026;-66
2022/02/13 09:14:13;;;;;;;0.00;0.00;;;;;;;4.61;73.98;101300.19;10441903;28;20024;-66
2022/02/13 09:19:13;;;;;;;0.00;0.00;;;;;;;4.49;72.23;101288.72;10432051;28;20028;-67
2022/02/13 09:24:14;;;;;;;0.00;0.00;;;;;;;4.39;72.97;101286.81;10429946;28;20355;-66
2022/02/13 09:29:14;;;;;;;0.00;0.00;;;;;;;4.33;74.15;101298.66;10422417;28;20033;-67
2022/02/13 09:34:18;;;;;;;0.00;0.00;;;;;;;4.26;74.34;101307.94;10438961;28;20071;-67
2022/02/13 09:39:19;;;;;;;0.00;0.00;;;;;;;4.17;75.29;101306.78;10438671;28;20514;-66
2022/02/13 09:44:20;;;;;;;0.00;0.00;;;;;;;4.04;76.67;101311.22;10431932;28;20024;-66
2022/02/13 09:49:22;;;;;;;0.00;0.00;;;;;;;3.98;75.11;101324.81;10429467;28;20013;-66
2022/02/13 09:54:22;;;;;;;0.00;0.00;;;;;;;4.08;76.10;101300.38;10404602;28;20463;-66
2022/02/13 09:59:23;;;;;;;0.00;0.00;;;;;;;4.19;75.96;101301.41;10439791;28;20092;-67
2022/02/13 10:04:41;;;;;;;0.00;0.00;;;;;;;4.32;76.63;101286.41;10437982;28;20013;-67
2022/02/13 10:09:42;;;;;;;0.00;0.00;;;;;;;4.33;74.76;101293.38;10436364;28;20017;-67
2022/02/13 10:14:42;;;;;;;0.10;0.10;;;;;;;4.38;74.91;101285.16;10422548;28;20029;-66
2022/02/13 10:19:51;;;;;;;0.00;0.00;;;;;;;4.41;76.98;101291.03;10428616;28;20032;-65
2022/02/13 10:24:52;;;;;;;0.00;0.00;;;;;;;4.42;77.88;101283.97;10432915;28;20033;-67
2022/02/13 10:29:55;;;;;;;0.00;0.00;;;;;;;4.49;76.19;101290.50;10426762;28;20025;-67
2022/02/13 10:35:10;;;;;;;0.00;0.00;;;;;;;4.47;75.83;101290.59;10435790;28;20155;-67
2022/02/13 10:40:12;;;;;;;0.10;0.10;;;;;;;4.41;74.91;101298.97;10432987;28;20021;-66
2022/02/13 10:45:26;;;;;;;0.00;0.00;;;;;;;4.39;77.41;101289.47;10416195;28;20083;-66
2022/02/13 10:50:30;;;;;;;0.00;0.00;;;;;;;4.54;77.84;101269.94;10436206;28;20028;-67
2022/02/13 10:55:34;;;;;;;0.00;0.00;;;;;;;4.58;78.04;101254.72;10434861;28;20099;-67
2022/02/13 11:00:37;;;;;;;0.00;0.00;;;;;;;4.52;76.98;101251.56;10424118;28;20068;-66
2022/02/13 11:05:39;;;;;;;0.00;0.00;;;;;;;4.53;77.48;101241.84;10438996;28;20017;-66
2022/02/13 11:10:41;;;;;;;0.00;0.00;;;;;;;4.59;76.82;101236.13;10430345;28;20060;-66
2022/02/13 11:15:42;;;;;;;0.00;0.00;;;;;;;4.67;78.39;101217.94;10426179;28;20021;-67
2022/02/13 11:20:43;;;;;;;0.00;0.00;;;;;;;4.71;77.41;101215.94;10426920;28;20372;-66
2022/02/13 11:25:53;;;;;;;0.00;0.00;;;;;;;4.86;78.77;101212.19;10435384;28;20032;-67
2022/02/13 11:30:56;;;;;;;0.00;0.00;;;;;;;4.94;77.98;101207.16;10413353;22;20040;-65
2022/02/13 11:35:59;;;;;;;0.00;0.00;;;;;;;5.09;77.32;101201.69;10397745;28;20021;-65
2022/02/13 11:40:59;;;;;;;0.00;0.00;;;;;;;5.24;74.41;101191.81;10404910;28;20102;-66
2022/02/13 11:45:59;;;;;;;0.00;0.00;;;;;;;5.38;78.38;101188.94;10407435;28;20017;-66
2022/02/13 11:51:00;;;;;;;0.00;0.00;;;;;;;5.50;74.50;101171.31;10411406;28;20027;-66
2022/02/13 11:56:26;;;;;;;0.00;0.00;;;;;;;5.52;74.80;101164.13;10415870;28;20048;-66
2022/02/13 12:01:35;;;;;;;0.00;0.00;;;;;;;5.55;78.28;101151.50;10400515;28;20022;-66
2022/02/13 12:06:36;;;;;;;0.00;0.00;;;;;;;5.53;76.50;101142.03;10375092;28;20061;-67
2022/02/13 12:11:42;;;;;;;0.10;0.10;;;;;;;5.51;73.59;101136.03;10408150;28;20108;-67
2022/02/13 12:16:54;;;;;;;0.00;0.00;;;;;;;5.50;73.87;101135.19;10415203;28;20010;-67
2022/02/13 12:22:08;;;;;;;0.00;0.00;;;;;;;5.59;75.99;101131.81;10414594;28;20013;-66
2022/02/13 12:27:09;;;;;;;0.03;0.03;;;;;;;5.69;77.42;101116.06;10414943;28;20500;-66
2022/02/13 12:32:12;;;;;;;0.00;0.00;;;;;;;5.76;74.46;101075.00;10413932;28;20074;-67
2022/02/13 12:37:12;;;;;;;0.03;0.03;;;;;;;5.89;74.79;101085.44;10414416;28;20566;-67
2022/02/13 12:42:27;;;;;;;0.00;0.00;;;;;;;5.92;75.05;101087.81;10405797;28;20018;-66
2022/02/13 12:47:29;;;;;;;0.00;0.00;;;;;;;5.88;74.02;101065.25;10379887;28;20133;-66
2022/02/13 12:52:31;;;;;;;0.10;0.10;;;;;;;5.86;75.59;101061.88;10373186;28;20388;-67
2022/02/13 12:57:32;;;;;;;0.00;0.00;;;;;;;5.86;74.71;101040.72;10373311;28;20026;-67
2022/02/13 13:02:32;;;;;;;0.00;0.00;;;;;;;5.88;77.24;101057.31;10372289;28;20444;-67
2022/02/13 13:07:32;;;;;;;0.00;0.00;;;;;;;5.88;75.00;101044.94;10373656;28;20387;-67
2022/02/13 13:12:32;;;;;;;0.00;0.00;;;;;;;5.78;74.38;101043.97;10413344;28;20024;-67
2022/02/13 13:17:39;;;;;;;0.00;0.00;;;;;;;5.74;75.55;101039.06;10413625;28;20021;-67
2022/02/13 13:22:39;;;;;;;0.00;0.00;;;;;;;5.78;75.70;101046.63;10409725;28;20488;-67
2022/02/13 13:27:39;;;;;;;0.00;0.00;;;;;;;5.78;74.92;101037.84;10408498;28;20083;-67
2022/02/13 13:32:40;;;;;;;0.00;0.00;;;;;;;5.80;75.01;101026.19;10409771;28;20029;-66
2022/02/13 13:37:46;;;;;;;0.00;0.00;;;;;;;5.84;76.65;101024.16;10403517;28;20025;-67
2022/02/13 13:43:08;;;;;;;0.00;0.00;;;;;;;5.89;78.11;101008.75;10409955;28;20079;-67
2022/02/13 13:48:14;;;;;;;0.00;0.00;;;;;;;5.92;76.49;100979.44;10396345;28;20033;-67
2022/02/13 13:53:18;;;;;;;0.00;0.00;;;;;;;5.96;76.12;100974.75;10411548;28;20457;-66
2022/02/13 13:58:20;;;;;;;0.00;0.00;;;;;;;5.96;75.98;100980.03;10412032;28;20115;-67
2022/02/13 14:03:21;;;;;;;0.10;0.10;;;;;;;5.92;75.80;100957.44;10411288;28;20026;-67
2022/02/13 14:08:22;;;;;;;0.00;0.00;;;;;;;5.85;76.63;100951.81;10410080;28;20028;-67
2022/02/13 14:13:25;;;;;;;0.00;0.00;;;;;;;5.78;76.42;100951.47;10381081;28;20044;-67
2022/02/13 14:18:26;;;;;;;0.00;0.00;;;;;;;5.73;77.02;100942.22;10370099;28;20271;-67
2022/02/13 14:23:26;;;;;;;0.00;0.00;;;;;;;5.67;78.55;100946.22;10374777;28;20409;-67
2022/02/13 14:28:26;;;;;;;0.00;0.00;;;;;;;5.61;77.64;100942.28;10372122;28;20049;-67
2022/02/13 14:33:27;;;;;;;0.10;0.10;;;;;;;5.58;78.46;100933.75;10369282;28;20105;-67
2022/02/13 14:38:27;;;;;;;0.00;0.00;;;;;;;5.56;77.13;100915.38;10360653;28;20025;-67
2022/02/13 14:43:27;;;;;;;0.00;0.00;;;;;;;5.56;77.30;100910.09;10406519;28;20030;-67
2022/02/13 14:48:28;;;;;;;0.00;0.00;;;;;;;5.52;77.52;100902.53;10405704;28;20025;-67
2022/02/13 14:53:28;;;;;;;0.00;0.00;;;;;;;5.45;77.63;100897.75;10410426;28;20025;-66
2022/02/13 14:58:29;;;;;;;0.00;0.00;;;;;;;5.44;77.57;100895.25;10410442;28;20037;-66
2022/02/13 15:03:29;;;;;;;0.00;0.00;;;;;;;5.38;77.91;100891.31;10410398;28;20115;-67
2022/02/13 15:08:29;;;;;;;0.10;0.10;;;;;;;5.36;78.06;100882.66;10410241;28;20099;-67
2022/02/13 15:13:31;;;;;;;0.00;0.00;;;;;;;5.35;77.45;100882.75;10409902;28;20026;-67
2022/02/13 15:18:32;;;;;;;0.00;0.00;;;;;;;5.33;79.13;100882.06;10410249;28;20100;-67
2022/02/13 15:23:32;;;;;;;0.00;0.00;;;;;;;5.23;78.69;100863.47;10409568;28;20120;-67
2022/02/13 15:28:32;;;;;;;0.00;0.00;;;;;;;5.18;76.95;100873.59;10409675;28;20087;-67
2022/02/13 15:33:33;;;;;;;0.00;0.00;;;;;;;5.14;77.15;100845.72;10409421;28;20092;-67
2022/02/13 15:38:35;;;;;;;0.00;0.00;;;;;;;5.07;77.95;100847.19;10409766;28;20053;-67
2022/02/13 15:43:36;;;;;;;0.00;0.00;;;;;;;5.03;76.59;100837.81;10425214;28;20029;-67
2022/02/13 15:48:37;;;;;;;0.00;0.00;;;;;;;4.93;77.76;100832.47;10433322;28;20026;-67
2022/02/13 15:53:37;;;;;;;0.00;0.00;;;;;;;4.83;76.72;100816.53;10367103;28;20810;-67
2022/02/13 15:58:37;;;;;;;0.00;0.00;;;;;;;4.79;77.03;100815.06;10367030;28;20315;-67
2022/02/13 16:03:37;;;;;;;0.00;0.00;;;;;;;4.67;78.57;100808.13;10366946;28;20280;-67
2022/02/13 16:08:38;;;;;;;0.00;0.00;;;;;;;4.57;78.50;100796.63;10385715;28;20029;-67
2022/02/13 16:13:39;;;;;;;0.00;0.00;;;;;;;4.48;78.75;100787.63;10407270;28;20512;-67
2022/02/13 16:18:39;;;;;;;0.00;0.00;;;;;;;4.41;78.78;100781.16;10366932;28;20037;-67
2022/02/13 16:28:58;;;;;;;0.00;0.00;;;;;;;4.26;78.96;100762.13;10366738;28;20129;-67
2022/02/13 16:33:58;;;;;;;0.00;0.00;;;;;;;4.13;79.18;100767.53;10368652;28;20096;-67
2022/02/13 16:39:00;;;;;;;0.00;0.00;;;;;;;4.03;79.47;100756.81;10404846;28;20484;-67
2022/02/13 16:44:01;;;;;;;0.00;0.00;;;;;;;4.04;80.21;100755.91;10408714;28;20018;-67
2022/02/13 16:49:04;;;;;;;0.00;0.00;;;;;;;4.00;80.31;100743.06;10378970;28;20402;-67
2022/02/13 16:54:05;;;;;;;0.00;0.00;;;;;;;3.97;82.06;100730.94;10373642;28;20432;-67
2022/02/13 16:59:06;;;;;;;0.00;0.00;;;;;;;3.91;82.12;100728.78;10373073;28;20032;-67
2022/02/13 17:04:08;;;;;;;0.00;0.00;;;;;;;3.93;81.59;100732.16;10372779;28;20453;-67
2022/02/13 17:09:08;;;;;;;0.00;0.00;;;;;;;3.92;81.64;100722.56;10383987;28;20028;-66
2022/02/13 17:14:09;;;;;;;0.00;0.00;;;;;;;3.92;80.88;100712.00;10410802;28;20041;-67
2022/02/13 17:19:10;;;;;;;0.00;0.00;;;;;;;3.96;81.48;100697.66;10412766;28;20064;-66
2022/02/13 17:24:10;;;;;;;0.00;0.00;;;;;;;3.94;81.02;100696.94;10389568;28;20064;-67
2022/02/13 17:29:10;;;;;;;0.00;0.00;;;;;;;3.88;81.66;100681.59;10413012;28;20104;-66
2022/02/13 17:34:11;;;;;;;0.00;0.00;;;;;;;3.84;82.30;100685.44;10412428;28;20727;-67
2022/02/13 17:39:11;;;;;;;0.00;0.00;;;;;;;3.85;81.80;100684.47;10392638;28;20451;-66
2022/02/13 17:44:12;;;;;;;0.00;0.00;;;;;;;3.86;81.79;100688.78;10409300;28;20207;-67
2022/02/13 17:49:12;;;;;;;0.00;0.00;;;;;;;3.87;81.49;100672.03;10411835;28;20447;-66
2022/02/13 17:54:12;;;;;;;0.00;0.00;;;;;;;3.82;81.64;100674.19;10412119;28;20751;-67
2022/02/13 17:59:13;;;;;;;0.00;0.00;;;;;;;3.81;81.73;100664.56;10403617;28;20044;-67
2022/02/13 18:04:14;;;;;;;0.00;0.00;;;;;;;3.81;82.58;100667.22;10353926;28;20029;-67
2022/02/13 18:09:14;;;;;;;0.00;0.00;;;;;;;3.82;81.50;100663.63;10385441;28;20029;-66
2022/02/13 18:14:14;;;;;;;0.00;0.00;;;;;;;3.87;81.38;100653.59;10410832;28;20834;-66
2022/02/13 18:19:14;;;;;;;0.00;0.00;;;;;;;3.87;81.21;100650.94;10410853;28;20268;-66
2022/02/13 18:24:15;;;;;;;0.00;0.00;;;;;;;3.84;81.63;100651.19;10405557;28;20350;-66
2022/02/13 18:29:15;;;;;;;0.00;0.00;;;;;;;3.81;81.33;100639.09;10369622;28;20393;-66
2022/02/13 18:34:15;;;;;;;0.00;0.00;;;;;;;3.79;81.43;100625.19;10369133;28;20022;-66
2022/02/13 18:39:16;;;;;;;0.00;0.00;;;;;;;3.82;81.79;100621.47;10389006;28;20021;-66
2022/02/13 18:44:18;;;;;;;0.00;0.00;;;;;;;3.80;81.75;100618.13;10407875;28;20292;-66
2022/02/13 18:49:18;;;;;;;0.00;0.00;;;;;;;3.77;82.38;100595.47;10391553;28;20498;-66
2022/02/13 18:54:19;;;;;;;0.00;0.00;;;;;;;3.77;82.00;100592.03;10385314;28;20109;-67
2022/02/13 18:59:19;;;;;;;0.00;0.00;;;;;;;3.78;81.63;100581.38;10382136;28;20033;-65
2022/02/13 19:04:21;;;;;;;0.00;0.00;;;;;;;3.82;82.00;100577.53;10393704;28;20079;-65
2022/02/13 19:09:21;;;;;;;0.00;0.00;;;;;;;3.93;81.53;100570.56;10387863;28;20060;-65
2022/02/13 19:14:22;;;;;;;0.00;0.00;;;;;;;4.02;81.57;100556.66;10393817;28;20083;-63
2022/02/13 19:19:22;;;;;;;0.00;0.00;;;;;;;4.05;82.61;100538.78;10378318;28;20045;-64
2022/02/13 19:24:22;;;;;;;0.00;0.00;;;;;;;4.11;83.46;100532.19;10389675;28;20096;-65
2022/02/13 19:29:23;;;;;;;0.00;0.00;;;;;;;4.17;83.81;100518.50;10384801;28;20895;-65
2022/02/13 19:34:23;;;;;;;0.00;0.00;;;;;;;4.20;84.45;100523.53;10387402;28;20272;-65
2022/02/13 19:39:24;;;;;;;0.00;0.00;;;;;;;4.21;85.35;100509.38;10402467;28;20343;-64
2022/02/13 19:44:25;;;;;;;0.00;0.00;;;;;;;4.22;86.26;100523.41;10371297;28;20013;-65
2022/02/13 19:49:26;;;;;;;0.00;0.00;;;;;;;4.28;87.10;100512.34;10390027;28;20025;-65
2022/02/13 19:54:26;;;;;;;0.00;0.00;;;;;;;4.27;87.84;100508.03;10386995;28;20049;-64
2022/02/13 19:59:27;;;;;;;0.00;0.00;;;;;;;4.28;88.15;100513.19;10394876;28;20033;-65
2022/02/13 20:04:28;;;;;;;0.00;0.00;;;;;;;4.29;88.78;100501.66;10390182;28;20022;-65
2022/02/13 20:09:28;;;;;;;0.00;0.00;;;;;;;4.31;89.32;100493.66;10382589;28;20527;-65
2022/02/13 20:14:29;;;;;;;0.00;0.00;;;;;;;4.28;89.69;100496.53;10400991;28;20024;-65
2022/02/13 20:19:29;;;;;;;0.00;0.00;;;;;;;4.27;90.62;100492.22;10401929;28;20037;-65
2022/02/13 20:24:30;;;;;;;0.00;0.00;;;;;;;4.28;90.88;100478.91;10387420;28;20029;-65
2022/02/13 20:29:30;;;;;;;0.00;0.00;;;;;;;4.26;91.35;100477.38;10392693;28;20037;-65
2022/02/13 20:34:32;;;;;;;0.00;0.00;;;;;;;4.24;91.97;100474.00;10391727;28;20025;-65
2022/02/13 20:39:33;;;;;;;0.00;0.00;;;;;;;4.19;92.58;100463.00;10403194;28;20394;-65
2022/02/13 20:44:33;;;;;;;0.00;0.00;;;;;;;4.17;93.35;100462.31;10402821;28;20097;-65
2022/02/13 20:49:33;;;;;;;0.00;0.00;;;;;;;4.13;93.79;100456.47;10388873;28;20025;-65
2022/02/13 20:54:34;;;;;;;0.00;0.00;;;;;;;4.14;94.02;100444.13;10388177;28;20029;-65
2022/02/13 20:59:38;;;;;;;0.00;0.00;;;;;;;4.14;94.46;100444.13;10382372;28;20018;-65
2022/02/13 21:04:38;;;;;;;0.00;0.00;;;;;;;4.13;95.31;100434.50;10387459;28;20022;-65
2022/02/13 21:09:38;;;;;;;0.00;0.00;;;;;;;4.11;95.98;100426.75;10391564;28;20044;-65
2022/02/13 21:14:40;;;;;;;0.00;0.00;;;;;;;4.05;96.52;100428.09;10397858;28;20144;-65
2022/02/13 21:19:40;;;;;;;0.00;0.00;;;;;;;4.11;97.18;100415.38;10392753;28;20045;-65
2022/02/13 21:24:41;;;;;;;0.00;0.00;;;;;;;4.14;97.24;100415.13;10381048;28;20516;-65
2022/02/13 21:29:41;;;;;;;0.00;0.00;;;;;;;4.10;98.17;100409.25;10391893;28;20036;-65
2022/02/13 21:34:41;;;;;;;0.00;0.00;;;;;;;4.15;98.53;100403.59;10391754;28;20021;-65
2022/02/13 21:39:42;;;;;;;0.00;0.00;;;;;;;4.21;97.90;100403.91;10393231;28;20025;-65
2022/02/13 21:44:43;;;;;;;0.00;0.00;;;;;;;4.26;98.30;100400.91;10373626;28;20068;-65
2022/02/13 21:49:44;;;;;;;0.00;0.00;;;;;;;4.34;98.01;100393.19;10389127;28;20436;-65
2022/02/13 21:54:44;;;;;;;0.00;0.00;;;;;;;4.34;98.24;100382.66;10391089;28;20014;-65
2022/02/13 21:59:45;;;;;;;0.00;0.00;;;;;;;4.42;97.95;100385.47;10390877;28;20283;-65
2022/02/13 22:04:45;;;;;;;0.00;0.00;;;;;;;4.44;97.71;100378.25;10392864;28;20276;-65
2022/02/13 22:09:45;;;;;;;0.00;0.00;;;;;;;4.51;97.41;100360.13;10396335;28;20388;-65
2022/02/13 22:14:45;;;;;;;0.00;0.00;;;;;;;4.51;97.20;100363.59;10388901;28;20088;-65
2022/02/13 22:19:46;;;;;;;0.00;0.00;;;;;;;4.55;96.95;100372.06;10389966;28;20024;-65
2022/02/13 22:24:46;;;;;;;0.00;0.00;;;;;;;4.63;96.54;100352.94;10387901;28;20025;-65
2022/02/13 22:29:47;;;;;;;0.00;0.00;;;;;;;4.68;96.43;100350.72;10383421;28;20262;-65
2022/02/13 22:34:48;;;;;;;0.00;0.00;;;;;;;4.67;96.31;100351.72;10389398;28;20021;-65
2022/02/13 22:39:48;;;;;;;0.00;0.00;;;;;;;4.72;95.78;100341.59;10402601;28;20022;-65
2022/02/13 22:44:48;;;;;;;0.00;0.00;;;;;;;4.75;95.86;100343.97;10402037;22;20129;-63
2022/02/13 22:49:49;;;;;;;0.00;0.00;;;;;;;4.80;95.47;100331.22;10385003;28;20026;-63
2022/02/13 22:54:49;;;;;;;0.00;0.00;;;;;;;4.85;94.90;100333.44;10387766;28;20018;-63
2022/02/13 22:59:50;;;;;;;0.00;0.00;;;;;;;4.84;94.45;100326.50;10380167;28;20383;-64
2022/02/13 23:05:02;;;;;;;0.00;0.00;;;;;;;4.94;94.11;100320.25;10384104;28;20025;-64
2022/02/13 23:15:24;;;;;;;0.00;0.00;;;;;;;4.98;93.50;100292.63;10386946;28;20033;-63
2022/02/13 23:20:25;;;;;;;0.00;0.00;;;;;;;4.97;93.70;100280.44;10391705;28;20112;-64
2022/02/13 23:25:25;;;;;;;0.00;0.00;;;;;;;5.05;93.19;100281.53;10388972;28;20108;-64